Time;durP1;ratioP1;P1;durP2;ratioP2;P2;SDS_P1;SDS_P2;PMS_P1;PMS_P2;Temp;Humidity;BMP_temperature;BMP_pressure;BME280_temperature;BME280_humidity;BME280_pressure;Samples;Min_cycle;Max_cycle;Signal;HPM_P1;HPM_P2
2021/01/04 00:02:18;;;;;;;33.47;30.23;;;2.30;99.90;;;;;;5024740;28;20655;-91
2021/01/04 00:05:23;;;;;;;34.57;31.03;;;2.20;99.90;;;;;;5021757;28;21231;-92
2021/01/04 00:08:24;;;;;;;35.90;32.30;;;2.20;99.90;;;;;;5024220;28;20671;-92
2021/01/04 00:11:15;;;;;;;35.90;30.90;;;2.20;99.90;;;;;;5021148;28;20687;-92
2021/01/04 00:13:51;;;;;;;33.90;30.47;;;2.20;99.90;;;;;;5005146;28;20661;-91
2021/01/04 00:16:26;;;;;;;36.03;32.13;;;2.20;99.90;;;;;;5022288;28;20978;-92
2021/01/04 00:19:02;;;;;;;34.17;30.67;;;2.20;99.90;;;;;;5007417;28;20645;-91
2021/01/04 00:21:36;;;;;;;36.57;32.77;;;2.20;99.90;;;;;;5009225;28;20630;-92
2021/01/04 00:24:15;;;;;;;31.23;27.97;;;2.20;99.90;;;;;;5006694;28;20669;-91
2021/01/04 00:26:50;;;;;;;33.00;29.23;;;2.20;99.90;;;;;;5022109;28;20672;-91
2021/01/04 00:29:20;;;;;;;33.60;29.93;;;2.20;99.90;;;;;;5027962;28;20693;-91
2021/01/04 00:31:50;;;;;;;34.10;30.60;;;2.20;99.90;;;;;;5028092;28;20632;-92
2021/01/04 00:34:21;;;;;;;30.40;27.03;;;2.20;99.90;;;;;;5025352;28;20689;-92
2021/01/04 00:37:18;;;;;;;32.80;29.67;;;2.20;99.90;;;;;;5028527;28;21180;-92
2021/01/04 00:39:53;;;;;;;33.33;29.40;;;2.20;99.90;;;;;;5025524;28;20632;-91
2021/01/04 00:42:33;;;;;;;31.93;28.73;;;2.30;99.90;;;;;;5022545;28;20650;-89
2021/01/04 00:45:08;;;;;;;31.67;28.60;;;2.20;99.90;;;;;;5022231;28;20660;-89
2021/01/04 00:47:44;;;;;;;31.63;28.57;;;2.20;99.90;;;;;;5027196;28;20684;-90
2021/01/04 00:50:20;;;;;;;31.70;28.50;;;2.20;99.90;;;;;;5029154;28;20689;-90
2021/01/04 00:52:57;;;;;;;34.47;31.07;;;2.20;99.90;;;;;;5021089;28;20645;-91
2021/01/04 00:55:59;;;;;;;30.10;27.20;;;2.20;99.90;;;;;;5022134;28;20629;-90
2021/01/04 00:58:43;;;;;;;33.23;29.73;;;2.20;99.90;;;;;;5020904;28;20652;-90
2021/01/04 01:01:14;;;;;;;33.43;29.93;;;2.20;99.90;;;;;;5022652;28;21025;-89
2021/01/04 01:04:03;;;;;;;31.87;28.57;;;2.20;99.90;;;;;;5022434;28;20670;-90
2021/01/04 01:06:38;;;;;;;34.87;30.30;;;2.20;99.90;;;;;;5020995;28;21124;-91
2021/01/04 01:09:09;;;;;;;32.23;28.77;;;2.20;99.90;;;;;;5030309;28;20649;-90
2021/01/04 01:11:59;;;;;;;31.60;28.30;;;2.20;99.90;;;;;;5023105;28;20713;-90
2021/01/04 01:14:30;;;;;;;29.70;26.60;;;2.20;99.90;;;;;;5020582;28;21258;-90
2021/01/04 01:17:26;;;;;;;31.57;28.27;;;2.20;99.90;;;;;;5021916;28;20667;-90
2021/01/04 01:19:58;;;;;;;29.23;26.20;;;2.20;99.90;;;;;;5022157;28;20667;-90
2021/01/04 01:22:29;;;;;;;28.40;25.50;;;2.10;99.90;;;;;;5021018;28;21041;-89
2021/01/04 01:24:57;;;;;;;29.00;25.90;;;2.20;99.90;;;;;;5023563;28;20663;-90
2021/01/04 01:27:51;;;;;;;28.43;25.60;;;2.10;99.90;;;;;;5024436;28;20684;-90
2021/01/04 01:30:50;;;;;;;31.70;26.97;;;2.10;99.90;;;;;;5025328;28;20676;-89
2021/01/04 01:33:50;;;;;;;30.50;27.40;;;2.20;99.90;;;;;;5022624;28;20656;-90
2021/01/04 01:36:31;;;;;;;31.07;27.70;;;2.20;99.90;;;;;;5023359;28;20641;-90
2021/01/04 01:39:37;;;;;;;31.60;28.23;;;2.20;99.90;;;;;;5005192;28;21228;-91
2021/01/04 01:42:41;;;;;;;30.70;27.80;;;2.20;99.90;;;;;;5020690;28;20637;-91
2021/01/04 01:45:16;;;;;;;32.70;29.23;;;2.10;99.90;;;;;;5021067;28;20711;-92
2021/01/04 01:47:48;;;;;;;32.47;29.27;;;2.00;99.90;;;;;;5027038;28;20665;-91
2021/01/04 01:50:34;;;;;;;31.00;27.90;;;2.10;99.90;;;;;;5021611;28;21253;-92
2021/01/04 01:53:12;;;;;;;31.70;28.43;;;2.20;99.90;;;;;;5021803;28;20680;-91
2021/01/04 01:55:51;;;;;;;31.07;27.97;;;2.10;99.90;;;;;;5028543;28;20669;-91
2021/01/04 01:58:46;;;;;;;29.53;26.57;;;2.10;99.90;;;;;;4996541;28;20633;-91
2021/01/04 02:01:25;;;;;;;30.70;27.30;;;2.10;99.90;;;;;;5020411;28;20641;-91
2021/01/04 02:04:00;;;;;;;31.07;27.80;;;2.10;99.90;;;;;;5030788;28;20671;-91
2021/01/04 02:06:42;;;;;;;30.37;27.33;;;2.10;99.90;;;;;;5030861;28;20639;-92
2021/01/04 02:09:15;;;;;;;32.57;29.30;;;2.20;99.90;;;;;;5031188;28;20643;-91
2021/01/04 02:11:52;;;;;;;30.57;27.57;;;2.20;99.90;;;;;;5027270;28;20638;-91
2021/01/04 02:14:30;;;;;;;31.50;28.30;;;2.10;99.90;;;;;;5027132;28;20685;-91
2021/01/04 02:17:18;;;;;;;31.77;28.17;;;2.10;99.90;;;;;;5028755;28;20679;-92
2021/01/04 02:20:13;;;;;;;29.43;26.60;;;2.10;99.90;;;;;;5025090;28;21469;-92
2021/01/04 02:23:15;;;;;;;31.60;27.57;;;2.10;99.90;;;;;;5023072;28;20648;-91
2021/01/04 02:25:50;;;;;;;27.77;24.87;;;2.10;99.90;;;;;;5028308;28;20644;-91
2021/01/04 02:28:24;;;;;;;32.30;28.90;;;2.10;99.90;;;;;;5029378;28;20669;-91
2021/01/04 02:30:52;;;;;;;31.50;28.50;;;2.00;99.90;;;;;;5030278;28;20641;-92
2021/01/04 02:33:18;;;;;;;30.93;27.63;;;2.00;99.90;;;;;;4998528;28;20703;-91
2021/01/04 02:35:47;;;;;;;30.80;26.63;;;2.10;99.90;;;;;;5030217;28;20626;-91
2021/01/04 02:38:23;;;;;;;30.07;27.07;;;2.10;99.90;;;;;;5030689;28;20631;-91
2021/01/04 02:40:50;;;;;;;30.53;27.43;;;2.10;99.90;;;;;;5027293;28;20640;-91
2021/01/04 02:43:17;;;;;;;29.80;26.00;;;2.10;99.90;;;;;;5026526;28;20666;-91
2021/01/04 02:45:43;;;;;;;30.23;27.13;;;2.10;99.90;;;;;;5029056;28;20707;-90
2021/01/04 02:48:22;;;;;;;31.60;28.47;;;2.20;99.90;;;;;;5028620;28;20672;-90
2021/01/04 02:51:02;;;;;;;30.87;27.70;;;2.20;99.90;;;;;;5010588;28;20641;-90
2021/01/04 02:53:54;;;;;;;29.60;26.73;;;2.20;99.90;;;;;;5006358;28;20664;-91
2021/01/04 02:56:41;;;;;;;29.70;26.70;;;2.10;99.90;;;;;;5022030;28;20646;-91
2021/01/04 02:59:31;;;;;;;31.13;27.97;;;2.20;99.90;;;;;;5028021;28;20649;-91
2021/01/04 03:02:04;;;;;;;27.30;24.50;;;2.20;99.90;;;;;;5024009;28;20656;-91
2021/01/04 03:04:33;;;;;;;29.97;26.93;;;2.30;99.90;;;;;;5027765;28;20660;-91
2021/01/04 03:07:07;;;;;;;28.70;25.87;;;2.20;99.90;;;;;;5027730;28;20769;-90
2021/01/04 03:09:35;;;;;;;29.47;26.57;;;2.30;99.90;;;;;;5028003;28;20639;-91
2021/01/04 03:12:10;;;;;;;28.27;25.43;;;2.20;99.90;;;;;;5025665;28;20653;-92
2021/01/04 03:14:57;;;;;;;30.00;26.90;;;2.20;99.90;;;;;;5005468;28;20672;-91
2021/01/04 03:17:33;;;;;;;30.53;27.43;;;2.20;99.90;;;;;;5025625;28;20625;-91
2021/01/04 03:20:05;;;;;;;28.63;25.63;;;2.20;99.90;;;;;;5032257;28;20705;-91
2021/01/04 03:22:32;;;;;;;26.60;23.87;;;2.10;99.90;;;;;;5020380;28;20635;-92
2021/01/04 03:24:58;;;;;;;28.70;25.60;;;2.10;99.90;;;;;;5026364;28;20665;-91
2021/01/04 03:27:30;;;;;;;28.60;25.63;;;2.10;99.90;;;;;;5024823;28;21233;-90
2021/01/04 03:29:58;;;;;;;29.77;26.97;;;2.10;99.90;;;;;;5026842;28;20631;-91
2021/01/04 03:32:24;;;;;;;26.23;23.67;;;2.10;99.90;;;;;;5022270;28;21463;-91
2021/01/04 03:34:53;;;;;;;27.20;24.60;;;2.10;99.90;;;;;;5028364;28;20664;-91
2021/01/04 03:37:19;;;;;;;28.37;25.47;;;2.20;99.90;;;;;;5030677;28;20632;-92
2021/01/04 03:39:46;;;;;;;26.63;23.93;;;2.10;99.90;;;;;;5029141;28;21030;-92
2021/01/04 03:42:12;;;;;;;27.10;24.40;;;2.10;99.90;;;;;;5026115;28;20657;-92
2021/01/04 03:44:41;;;;;;;27.70;24.97;;;2.10;99.90;;;;;;5023610;28;20690;-92
2021/01/04 03:47:08;;;;;;;26.40;23.70;;;2.10;99.90;;;;;;5027754;28;20702;-91
2021/01/04 03:49:37;;;;;;;27.27;24.63;;;2.10;99.90;;;;;;5025239;28;20640;-93
2021/01/04 03:52:03;;;;;;;30.27;27.30;;;2.10;99.90;;;;;;5011316;28;20695;-94
2021/01/04 03:54:31;;;;;;;28.37;25.47;;;2.10;99.90;;;;;;5030710;28;20654;-92
2021/01/04 03:56:58;;;;;;;27.57;24.80;;;2.10;99.90;;;;;;5015155;28;20653;-93
2021/01/04 03:59:26;;;;;;;28.17;25.27;;;2.10;99.90;;;;;;5034661;28;20625;-92
2021/01/04 04:01:55;;;;;;;27.57;24.67;;;2.10;99.90;;;;;;5022554;28;20644;-90
2021/01/04 04:04:23;;;;;;;27.17;24.37;;;2.00;99.90;;;;;;5028124;28;20639;-90
2021/01/04 04:06:49;;;;;;;28.27;25.30;;;2.00;99.90;;;;;;5010379;28;21067;-91
2021/01/04 04:09:20;;;;;;;26.63;23.93;;;2.10;99.90;;;;;;5029448;28;21030;-91
2021/01/04 04:11:53;;;;;;;27.60;24.87;;;2.20;99.90;;;;;;5023277;28;20648;-92
2021/01/04 04:14:20;;;;;;;27.63;24.27;;;2.20;99.90;;;;;;5022227;28;20659;-90
2021/01/04 04:16:49;;;;;;;29.00;25.90;;;2.20;99.90;;;;;;5017925;28;20672;-90
2021/01/04 04:19:16;;;;;;;28.90;25.90;;;2.10;99.90;;;;;;5024507;28;20653;-90
2021/01/04 04:21:43;;;;;;;28.70;25.60;;;2.20;99.90;;;;;;5026213;28;21054;-90
2021/01/04 04:24:18;;;;;;;29.17;26.20;;;2.10;99.90;;;;;;5011505;28;20643;-91
2021/01/04 04:26:44;;;;;;;29.97;26.80;;;2.20;99.90;;;;;;5024548;28;20662;-92
2021/01/04 04:29:10;;;;;;;29.33;26.33;;;2.20;99.90;;;;;;5009882;28;20647;-91
2021/01/04 04:31:42;;;;;;;32.57;29.17;;;2.30;99.90;;;;;;5026501;28;20649;-92
2021/01/04 04:34:18;;;;;;;32.50;29.20;;;2.10;99.90;;;;;;5027773;28;21204;-92
2021/01/04 04:36:44;;;;;;;29.13;26.13;;;2.20;99.90;;;;;;5026868;28;20666;-92
2021/01/04 04:39:13;;;;;;;30.30;27.00;;;2.20;99.90;;;;;;5025642;28;20646;-92
2021/01/04 04:41:42;;;;;;;31.77;28.37;;;2.20;99.90;;;;;;5006570;28;21393;-91
2021/01/04 04:44:17;;;;;;;29.03;26.13;;;2.20;99.90;;;;;;5025790;28;20632;-90
2021/01/04 04:46:57;;;;;;;31.80;28.40;;;2.20;99.90;;;;;;5023575;28;21241;-90
2021/01/04 04:50:06;;;;;;;31.40;27.97;;;2.20;99.90;;;;;;5023462;28;20633;-91
2021/01/04 04:53:06;;;;;;;31.90;28.47;;;2.10;99.90;;;;;;5027156;28;20637;-90
2021/01/04 04:55:49;;;;;;;30.30;27.20;;;2.10;99.90;;;;;;5044041;28;20632;-91
2021/01/04 04:58:36;;;;;;;32.20;28.90;;;2.20;99.90;;;;;;5041368;28;20664;-90
2021/01/04 05:01:16;;;;;;;28.33;25.40;;;2.20;99.90;;;;;;5044455;28;20620;-91
2021/01/04 05:04:15;;;;;;;31.77;28.50;;;2.20;99.90;;;;;;5042336;28;20636;-91
2021/01/04 05:06:47;;;;;;;29.87;26.73;;;2.20;99.90;;;;;;5036813;28;21300;-89
2021/01/04 05:09:38;;;;;;;29.73;26.67;;;2.10;99.90;;;;;;5040660;28;20726;-89
2021/01/04 05:12:22;;;;;;;31.90;28.70;;;2.20;99.90;;;;;;5042192;28;21075;-90
2021/01/04 05:14:58;;;;;;;30.30;27.30;;;2.20;99.90;;;;;;5035105;28;20731;-91
2021/01/04 05:18:11;;;;;;;31.90;28.60;;;2.30;99.90;;;;;;5049051;28;20671;-89
2021/01/04 05:21:12;;;;;;;32.73;29.37;;;2.20;99.90;;;;;;5015953;28;20634;-90
2021/01/04 05:24:11;;;;;;;32.43;28.93;;;2.10;99.90;;;;;;5028143;28;20649;-89
2021/01/04 05:27:21;;;;;;;33.33;30.00;;;2.20;99.90;;;;;;5025357;28;20652;-88
2021/01/04 05:30:19;;;;;;;32.03;28.77;;;2.20;99.90;;;;;;5027126;28;20644;-90
2021/01/04 05:33:22;;;;;;;31.90;28.73;;;2.20;99.90;;;;;;5023780;28;20692;-90
2021/01/04 05:35:50;;;;;;;30.27;27.23;;;2.10;99.90;;;;;;5012168;28;20721;-89
2021/01/04 05:38:26;;;;;;;31.07;27.97;;;2.10;99.90;;;;;;5028740;28;20651;-89
2021/01/04 05:41:46;;;;;;;32.10;28.57;;;2.10;99.90;;;;;;5028259;28;21278;-90
2021/01/04 05:44:53;;;;;;;30.43;27.23;;;2.10;99.90;;;;;;5030609;28;21089;-89
2021/01/04 05:47:32;;;;;;;33.47;29.97;;;2.20;99.90;;;;;;5028918;28;21017;-89
2021/01/04 05:50:13;;;;;;;32.57;29.10;;;2.20;99.90;;;;;;5009588;28;20744;-89
2021/01/04 05:52:41;;;;;;;33.67;30.17;;;2.20;99.90;;;;;;5029205;28;21147;-90
2021/01/04 05:55:10;;;;;;;35.50;31.70;;;2.10;99.90;;;;;;5026422;28;20736;-89
2021/01/04 05:57:46;;;;;;;37.00;33.03;;;2.10;99.90;;;;;;5029150;28;20678;-91
2021/01/04 06:00:16;;;;;;;35.23;28.97;;;2.20;99.90;;;;;;5033035;28;20640;-90
2021/01/04 06:02:49;;;;;;;32.60;29.30;;;2.20;99.90;;;;;;5029110;28;20651;-91
2021/01/04 06:05:21;;;;;;;32.90;29.40;;;2.20;99.90;;;;;;5031717;28;20618;-89
2021/01/04 06:07:48;;;;;;;45.40;39.97;;;2.20;99.90;;;;;;5035207;28;20679;-88
2021/01/04 06:10:21;;;;;;;37.40;33.40;;;2.20;99.90;;;;;;5035822;28;20647;-87
2021/01/04 06:12:50;;;;;;;33.53;29.83;;;2.20;99.90;;;;;;5046029;28;20658;-88
2021/01/04 06:15:27;;;;;;;32.27;29.10;;;2.20;99.90;;;;;;5037194;28;20626;-89
2021/01/04 06:18:01;;;;;;;34.03;30.53;;;2.30;99.90;;;;;;5035194;28;20633;-88
2021/01/04 06:20:55;;;;;;;34.00;30.50;;;2.20;99.90;;;;;;5033855;28;20645;-89
2021/01/04 06:23:26;;;;;;;31.90;28.50;;;2.20;99.90;;;;;;5035077;28;20670;-89
2021/01/04 06:25:56;;;;;;;33.40;28.37;;;2.20;99.90;;;;;;5032846;28;20641;-90
2021/01/04 06:28:25;;;;;;;32.67;29.33;;;2.20;99.90;;;;;;5029583;28;20671;-89
2021/01/04 06:31:01;;;;;;;32.43;29.03;;;2.20;99.90;;;;;;5031395;28;20697;-89
2021/01/04 06:33:29;;;;;;;33.10;28.90;;;2.30;99.90;;;;;;5015526;28;20620;-90
2021/01/04 06:36:06;;;;;;;29.27;26.27;;;2.20;99.90;;;;;;5033849;28;20655;-89
2021/01/04 06:38:36;;;;;;;31.23;28.23;;;2.20;99.90;;;;;;5031493;28;20675;-89
2021/01/04 06:41:15;;;;;;;32.83;29.33;;;2.30;99.90;;;;;;5035821;28;20641;-88
2021/01/04 06:43:44;;;;;;;34.13;28.50;;;2.30;99.90;;;;;;5030625;28;20648;-88
2021/01/04 06:46:27;;;;;;;32.87;29.50;;;2.30;99.90;;;;;;5033833;28;20663;-89
2021/01/04 06:48:59;;;;;;;31.07;27.77;;;2.30;99.90;;;;;;5028562;28;20739;-88
2021/01/04 06:52:05;;;;;;;31.30;28.00;;;2.30;99.90;;;;;;5027873;28;21054;-88
2021/01/04 06:55:02;;;;;;;31.73;28.60;;;2.20;99.90;;;;;;5029874;28;20615;-89
2021/01/04 06:57:56;;;;;;;31.87;28.63;;;2.10;99.90;;;;;;5029967;28;20642;-89
2021/01/04 07:00:34;;;;;;;31.00;27.90;;;2.30;99.90;;;;;;5027902;28;21089;-89
2021/01/04 07:03:22;;;;;;;30.90;27.90;;;2.20;99.90;;;;;;5027579;28;20642;-89
2021/01/04 07:06:31;;;;;;;31.60;28.30;;;2.20;99.90;;;;;;5025642;28;21378;-89
2021/01/04 07:09:11;;;;;;;30.83;27.63;;;2.10;99.90;;;;;;5024567;28;20737;-89
2021/01/04 07:11:46;;;;;;;30.63;27.40;;;2.20;99.90;;;;;;5024670;28;20628;-89
2021/01/04 07:14:30;;;;;;;33.93;30.53;;;2.20;99.90;;;;;;5028011;28;20639;-89
2021/01/04 07:17:19;;;;;;;33.23;29.80;;;2.20;99.90;;;;;;5025884;28;20640;-89
2021/01/04 07:20:10;;;;;;;30.50;27.30;;;2.20;99.90;;;;;;5029679;28;20660;-90
2021/01/04 07:22:46;;;;;;;32.00;28.70;;;2.20;99.90;;;;;;5025647;28;20639;-88
2021/01/04 07:25:25;;;;;;;32.37;28.97;;;2.20;99.90;;;;;;5028461;28;20624;-89
2021/01/04 07:28:00;;;;;;;32.87;29.63;;;2.20;99.90;;;;;;5030905;28;20678;-89
2021/01/04 07:30:46;;;;;;;32.63;29.33;;;2.20;99.90;;;;;;5010749;28;21496;-88
2021/01/04 07:33:29;;;;;;;30.87;27.67;;;2.20;99.90;;;;;;5028805;28;20993;-88
2021/01/04 07:36:06;;;;;;;30.10;26.87;;;2.10;99.90;;;;;;5030376;28;20772;-91
2021/01/04 07:38:54;;;;;;;30.70;27.50;;;2.20;99.90;;;;;;5011329;28;21016;-93
2021/01/04 07:41:42;;;;;;;31.93;28.20;;;2.30;99.90;;;;;;5014918;28;20648;-93
2021/01/04 07:44:28;;;;;;;28.20;25.27;;;2.30;99.90;;;;;;5032286;28;20648;-92
2021/01/04 07:47:34;;;;;;;28.63;25.63;;;2.20;99.90;;;;;;5035334;28;20636;-92
2021/01/04 07:50:37;;;;;;;29.73;26.57;;;2.30;99.90;;;;;;5033077;28;20698;-94
2021/01/04 07:53:37;;;;;;;31.00;27.73;;;2.30;99.90;;;;;;5030621;28;21042;-91
2021/01/04 07:56:33;;;;;;;30.17;26.97;;;2.30;99.90;;;;;;5028019;28;20655;-91
2021/01/04 07:59:40;;;;;;;27.77;25.00;;;2.30;99.90;;;;;;5027145;28;21023;-90
2021/01/04 08:02:29;;;;;;;30.00;27.00;;;2.30;99.90;;;;;;5027228;28;20725;-91
2021/01/04 08:05:36;;;;;;;31.50;25.97;;;2.30;99.90;;;;;;5026185;28;21153;-92
2021/01/04 08:08:28;;;;;;;29.33;26.27;;;2.30;99.90;;;;;;5027439;28;20894;-93
2021/01/04 08:11:31;;;;;;;31.90;28.70;;;2.30;99.90;;;;;;5027209;28;20676;-92
2021/01/04 08:14:39;;;;;;;27.50;24.80;;;2.30;99.90;;;;;;5027165;28;20624;-92
2021/01/04 08:17:14;;;;;;;28.50;25.47;;;2.30;99.90;;;;;;5027418;28;20641;-93
2021/01/04 08:19:45;;;;;;;29.90;26.80;;;2.40;99.90;;;;;;5029072;28;21102;-92
2021/01/04 08:22:32;;;;;;;29.70;26.57;;;2.40;99.90;;;;;;5028290;28;20636;-92
2021/01/04 08:25:06;;;;;;;28.50;25.80;;;2.50;99.90;;;;;;5027696;28;20651;-93
2021/01/04 08:27:46;;;;;;;30.60;27.37;;;2.40;99.90;;;;;;5028336;28;20677;-92
2021/01/04 08:30:21;;;;;;;28.10;25.30;;;2.50;99.90;;;;;;5028933;28;20672;-93
2021/01/04 08:32:54;;;;;;;29.37;26.40;;;2.50;99.90;;;;;;5028725;28;20666;-92
2021/01/04 08:35:36;;;;;;;31.77;28.60;;;2.50;99.90;;;;;;5035227;28;20772;-93
2021/01/04 08:38:18;;;;;;;28.60;25.60;;;2.40;99.90;;;;;;5032683;28;20699;-92
2021/01/04 08:40:57;;;;;;;28.13;25.13;;;2.50;99.90;;;;;;5042333;28;20633;-92
2021/01/04 08:43:34;;;;;;;27.37;24.50;;;2.50;99.90;;;;;;5040838;28;20711;-93
2021/01/04 08:46:28;;;;;;;25.60;23.00;;;2.60;99.90;;;;;;5032174;28;20783;-95
2021/01/04 08:48:59;;;;;;;26.67;23.90;;;2.60;99.90;;;;;;5027990;28;21245;-94
2021/01/04 08:51:33;;;;;;;28.77;25.83;;;2.70;99.90;;;;;;5028565;28;20658;-92
2021/01/04 08:54:04;;;;;;;28.23;25.30;;;2.70;99.90;;;;;;5030315;28;21040;-94
2021/01/04 08:56:38;;;;;;;28.77;25.77;;;2.80;99.90;;;;;;5028438;28;20661;-90
2021/01/04 08:59:11;;;;;;;27.83;25.13;;;2.80;99.90;;;;;;5027161;28;20676;-90
2021/01/04 09:01:48;;;;;;;30.20;26.87;;;2.80;99.90;;;;;;5026323;28;20616;-92
2021/01/04 09:04:31;;;;;;;32.90;27.77;;;2.70;99.90;;;;;;5025596;28;20650;-92
2021/01/04 09:07:15;;;;;;;28.50;25.50;;;2.80;99.90;;;;;;5026835;28;20637;-92
2021/01/04 09:09:49;;;;;;;28.70;25.80;;;2.80;99.90;;;;;;5026578;28;20744;-93
2021/01/04 09:12:26;;;;;;;27.47;24.47;;;2.90;99.90;;;;;;5023267;28;20668;-93
2021/01/04 09:14:59;;;;;;;27.20;24.50;;;2.90;99.90;;;;;;5028524;28;21086;-94
2021/01/04 09:17:38;;;;;;;27.83;24.93;;;2.80;99.90;;;;;;5027047;28;20629;-93
2021/01/04 09:20:16;;;;;;;27.53;24.77;;;2.80;99.90;;;;;;5029669;28;20677;-94
2021/01/04 09:22:45;;;;;;;28.27;25.40;;;2.80;99.90;;;;;;5021972;28;21208;-95
2021/01/04 09:25:25;;;;;;;29.53;26.43;;;2.90;99.90;;;;;;5025049;28;20686;-94
2021/01/04 09:27:54;;;;;;;28.03;25.33;;;2.90;99.90;;;;;;5025143;28;21386;-95
2021/01/04 09:30:23;;;;;;;29.87;26.67;;;2.90;99.90;;;;;;5027286;28;20655;-94
2021/01/04 09:33:03;;;;;;;27.13;24.43;;;3.00;99.90;;;;;;5028162;28;20638;-94
2021/01/04 09:35:31;;;;;;;32.43;29.43;;;3.10;99.90;;;;;;5009184;28;20763;-95
2021/01/04 09:38:07;;;;;;;28.50;25.80;;;3.10;99.90;;;;;;5026967;28;20624;-95
2021/01/04 09:40:37;;;;;;;28.53;25.77;;;3.00;99.90;;;;;;5029435;28;20648;-95
2021/01/04 09:43:22;;;;;;;28.53;25.63;;;3.10;99.90;;;;;;5031999;28;21218;-94
2021/01/04 09:45:48;;;;;;;26.83;24.10;;;3.20;99.90;;;;;;5024727;28;20666;-95
2021/01/04 09:48:28;;;;;;;29.67;26.73;;;3.20;99.90;;;;;;5028929;28;21319;-95
2021/01/04 09:50:59;;;;;;;28.57;25.63;;;3.30;99.90;;;;;;5024181;28;20690;-94
2021/01/04 09:53:30;;;;;;;31.10;26.00;;;3.30;99.90;;;;;;5011629;28;20652;-95
2021/01/04 09:56:00;;;;;;;28.20;25.50;;;3.30;99.90;;;;;;5033650;28;20662;-94
2021/01/04 09:58:26;;;;;;;26.80;24.13;;;3.30;99.90;;;;;;5030714;28;20656;-94
2021/01/04 10:01:05;;;;;;;27.50;24.43;;;3.40;99.90;;;;;;5029548;28;20641;-94
2021/01/04 10:03:37;;;;;;;33.37;29.77;;;3.30;99.90;;;;;;5029474;28;20624;-94
2021/01/04 10:06:08;;;;;;;29.30;26.40;;;3.30;99.90;;;;;;5048199;28;20763;-94
2021/01/04 10:08:40;;;;;;;31.07;28.07;;;3.30;99.90;;;;;;5051652;28;20693;-94
2021/01/04 10:11:09;;;;;;;27.57;24.70;;;3.30;99.90;;;;;;5044014;28;20653;-95
2021/01/04 10:13:38;;;;;;;28.10;25.23;;;3.40;99.90;;;;;;5038073;28;21272;-93
2021/01/04 10:16:08;;;;;;;23.60;21.30;;;3.50;99.90;;;;;;5028434;28;21376;-95
2021/01/04 10:18:45;;;;;;;22.10;19.80;;;3.50;99.90;;;;;;5036906;28;20673;-96
2021/01/04 10:21:17;;;;;;;22.07;19.97;;;3.30;99.90;;;;;;5036385;28;20651;-94
2021/01/04 10:23:49;;;;;;;22.50;20.27;;;3.30;99.90;;;;;;5037896;28;20653;-93
2021/01/04 10:26:16;;;;;;;20.63;18.70;;;3.50;99.90;;;;;;5027474;28;20642;-94
2021/01/04 10:28:43;;;;;;;21.13;19.10;;;3.30;99.90;;;;;;5028269;28;21114;-94
2021/01/04 10:31:25;;;;;;;22.20;19.90;;;3.40;99.90;;;;;;5030432;28;20672;-94
2021/01/04 10:34:03;;;;;;;28.27;25.47;;;3.30;99.90;;;;;;5033184;28;20651;-95
2021/01/04 10:36:30;;;;;;;26.17;23.57;;;3.40;99.90;;;;;;5013120;28;20633;-94
2021/01/04 10:39:00;;;;;;;29.90;26.70;;;3.30;99.90;;;;;;5013288;28;21213;-94
2021/01/04 10:41:36;;;;;;;22.10;20.00;;;3.50;99.90;;;;;;5033561;28;20642;-94
2021/01/04 10:44:08;;;;;;;21.43;19.40;;;3.30;99.90;;;;;;5016581;28;20647;-94
2021/01/04 10:46:38;;;;;;;20.17;18.27;;;3.30;99.90;;;;;;5033738;28;20641;-94
2021/01/04 10:49:19;;;;;;;48.93;34.73;;;3.40;99.90;;;;;;5031435;28;20678;-94
2021/01/04 10:51:51;;;;;;;21.57;19.30;;;3.30;99.90;;;;;;5041461;28;20651;-93
2021/01/04 10:54:21;;;;;;;20.03;18.10;;;3.00;99.90;;;;;;5048141;28;20701;-94
2021/01/04 10:57:00;;;;;;;18.30;16.50;;;3.10;99.90;;;;;;5035941;28;20654;-95
2021/01/04 10:59:38;;;;;;;17.77;16.03;;;3.30;99.90;;;;;;5029326;28;20669;-95
2021/01/04 11:02:08;;;;;;;19.00;17.10;;;3.30;99.90;;;;;;5032361;28;20702;-94
2021/01/04 11:04:38;;;;;;;19.27;17.40;;;3.40;99.90;;;;;;5040929;28;20591;-94
2021/01/04 11:07:18;;;;;;;19.23;17.23;;;3.40;99.90;;;;;;5033636;28;20672;-94
2021/01/04 11:09:46;;;;;;;21.83;19.63;;;3.30;99.90;;;;;;5033256;28;20696;-93
2021/01/04 11:12:15;;;;;;;14.53;13.13;;;3.20;99.90;;;;;;5028450;28;20648;-94
2021/01/04 11:14:56;;;;;;;12.33;11.13;;;3.10;99.90;;;;;;5031362;28;20689;-93
2021/01/04 11:17:26;;;;;;;12.83;11.57;;;3.10;99.90;;;;;;5033023;28;20616;-93
2021/01/04 11:19:53;;;;;;;12.23;11.03;;;3.20;99.90;;;;;;5030364;28;20661;-91
2021/01/04 11:22:26;;;;;;;12.00;10.90;;;3.20;99.90;;;;;;5011166;28;21314;-92
2021/01/04 11:24:53;;;;;;;12.23;11.13;;;3.30;99.90;;;;;;5031450;28;20663;-94
2021/01/04 11:27:20;;;;;;;13.00;11.70;;;3.30;99.90;;;;;;5029011;28;20639;-94
2021/01/04 11:29:48;;;;;;;14.33;13.03;;;3.30;99.90;;;;;;5029545;28;20679;-94
2021/01/04 11:32:18;;;;;;;13.70;12.47;;;3.30;99.90;;;;;;5007686;28;20646;-93
2021/01/04 11:34:46;;;;;;;12.17;11.00;;;3.30;99.90;;;;;;5010766;28;20761;-94
2021/01/04 11:37:13;;;;;;;13.60;12.20;;;3.30;99.90;;;;;;5027804;28;20694;-93
2021/01/04 11:39:41;;;;;;;12.90;11.70;;;3.20;99.90;;;;;;4993135;28;20657;-92
2021/01/04 11:42:09;;;;;;;13.20;12.00;;;3.10;99.90;;;;;;5022533;28;20631;-90
2021/01/04 11:44:37;;;;;;;15.20;13.73;;;3.20;99.90;;;;;;5029518;28;20637;-91
2021/01/04 11:47:04;;;;;;;15.80;14.30;;;3.30;99.90;;;;;;5028214;28;20660;-90
2021/01/04 11:49:32;;;;;;;14.90;13.60;;;3.30;99.90;;;;;;5030590;28;20740;-90
2021/01/04 11:51:58;;;;;;;17.17;14.70;;;3.30;99.90;;;;;;5030295;28;20692;-89
2021/01/04 11:54:26;;;;;;;15.10;13.70;;;3.30;99.90;;;;;;5026033;28;20655;-91
2021/01/04 11:56:53;;;;;;;16.10;14.53;;;3.30;99.90;;;;;;5012050;28;20654;-90
2021/01/04 11:59:20;;;;;;;16.17;14.53;;;3.30;99.90;;;;;;5007581;28;20669;-90
2021/01/04 12:01:46;;;;;;;15.43;13.70;;;3.20;99.90;;;;;;5031958;28;20630;-91
2021/01/04 12:04:13;;;;;;;16.40;14.77;;;3.20;99.90;;;;;;5025241;28;20639;-91
2021/01/04 12:06:40;;;;;;;15.03;13.60;;;3.30;99.90;;;;;;5024689;28;20636;-90
2021/01/04 12:09:08;;;;;;;15.70;14.20;;;3.10;99.90;;;;;;5030218;28;20679;-89
2021/01/04 12:11:37;;;;;;;16.53;14.97;;;3.20;99.90;;;;;;5026424;28;21024;-91
2021/01/04 12:14:06;;;;;;;16.40;14.80;;;3.30;99.90;;;;;;5025264;28;20670;-90
2021/01/04 12:16:34;;;;;;;16.70;15.00;;;3.20;99.90;;;;;;5029704;28;20733;-91
2021/01/04 12:19:00;;;;;;;18.30;16.60;;;3.30;99.90;;;;;;5029385;28;20664;-91
2021/01/04 12:21:28;;;;;;;16.90;15.30;;;3.10;99.90;;;;;;5026837;28;20632;-90
2021/01/04 12:23:54;;;;;;;17.10;15.53;;;3.10;99.90;;;;;;5022463;28;20646;-91
2021/01/04 12:26:22;;;;;;;18.87;17.20;;;3.10;99.90;;;;;;5029663;28;20646;-91
2021/01/04 12:28:50;;;;;;;17.53;15.83;;;3.10;99.90;;;;;;5023775;28;20670;-88
2021/01/04 12:31:17;;;;;;;20.60;18.57;;;3.00;99.90;;;;;;5032102;28;21219;-90
2021/01/04 12:33:43;;;;;;;19.37;16.80;;;3.00;99.90;;;;;;5026587;28;20633;-91
2021/01/04 12:36:16;;;;;;;20.93;18.77;;;3.10;99.90;;;;;;5022486;28;20651;-91
2021/01/04 12:38:43;;;;;;;21.63;19.57;;;3.10;99.90;;;;;;5025191;28;20652;-89
2021/01/04 12:41:10;;;;;;;28.40;25.43;;;3.10;99.90;;;;;;5020826;28;20645;-88
2021/01/04 12:43:36;;;;;;;29.13;26.17;;;3.00;99.90;;;;;;5024107;28;20649;-90
2021/01/04 12:46:04;;;;;;;27.77;25.07;;;2.90;99.90;;;;;;5005405;28;21054;-89
2021/01/04 12:48:32;;;;;;;27.30;24.80;;;2.80;99.90;;;;;;5028770;28;20683;-90
2021/01/04 12:50:59;;;;;;;27.63;24.93;;;2.90;99.90;;;;;;5020726;28;20645;-90
2021/01/04 12:53:25;;;;;;;27.73;24.80;;;2.80;99.90;;;;;;5028391;28;20617;-93
2021/01/04 12:55:53;;;;;;;26.70;24.00;;;2.90;99.90;;;;;;5029222;28;20673;-93
2021/01/04 12:58:20;;;;;;;24.60;22.10;;;3.00;99.90;;;;;;5027936;28;21288;-92
2021/01/04 13:00:49;;;;;;;23.10;20.77;;;2.80;99.90;;;;;;5029639;28;20675;-92
2021/01/04 13:03:17;;;;;;;21.57;19.43;;;2.80;99.90;;;;;;5033114;28;20743;-92
2021/01/04 13:05:47;;;;;;;24.00;21.60;;;2.70;99.90;;;;;;5046433;28;20704;-89
2021/01/04 13:08:14;;;;;;;22.10;19.87;;;2.90;99.90;;;;;;5045484;28;20675;-90
2021/01/04 13:10:43;;;;;;;22.47;20.43;;;2.80;99.90;;;;;;5030426;28;20779;-90
2021/01/04 13:13:10;;;;;;;21.50;19.40;;;2.70;99.90;;;;;;5025830;28;20736;-90
2021/01/04 13:15:36;;;;;;;20.27;18.20;;;2.90;99.90;;;;;;5025044;28;20681;-91
2021/01/04 13:18:03;;;;;;;21.60;19.70;;;2.90;99.90;;;;;;5028004;28;20651;-90
2021/01/04 13:20:31;;;;;;;20.87;18.33;;;2.80;99.90;;;;;;5024226;28;21151;-89
2021/01/04 13:22:57;;;;;;;20.17;18.17;;;2.80;99.90;;;;;;5025709;28;20650;-90
2021/01/04 13:25:24;;;;;;;20.67;18.50;;;2.80;99.90;;;;;;5028127;28;20624;-89